Time;durP1;ratioP1;P1;durP2;ratioP2;P2;SDS_P1;SDS_P2;PMS_P1;PMS_P2;Temp;Humidity;BMP_temperature;BMP_pressure;BME280_temperature;BME280_humidity;BME280_pressure;Samples;Min_cycle;Max_cycle;Signal;HPM_P1;HPM_P2
2023/06/27 00:00:13;;;;;;;;;;;;;;;15.70;72.91;102006.66;5088856;28;19928;-59
2023/06/27 00:02:40;;;;;;;;;;;;;;;15.71;72.76;102013.59;5098025;28;20395;-58
2023/06/27 00:05:05;;;;;;;;;;;;;;;15.68;73.73;102016.13;5095811;28;19935;-58
2023/06/27 00:07:31;;;;;;;;;;;;;;;15.68;72.95;102016.13;5081922;28;20351;-60
2023/06/27 00:09:56;;;;;;;;;;;;;;;15.67;74.27;102015.25;5096838;28;20011;-45
2023/06/27 00:12:22;;;;;;;;;;;;;;;15.67;73.51;102014.38;5084071;28;20374;-47
2023/06/27 00:14:47;;;;;;;;;;;;;;;15.68;72.75;102003.16;5084550;28;19920;-47
2023/06/27 00:17:12;;;;;;;;;;;;;;;15.70;74.39;102011.84;5095335;28;19923;-46
2023/06/27 00:19:38;;;;;;;;;;;;;;;15.70;74.67;102009.25;5091366;28;19962;-45
2023/06/27 00:22:09;;;;;;;;;;;;;;;15.70;73.61;102007.53;5079139;28;19916;-49
2023/06/27 00:24:34;;;;;;;;;;;;;;;15.69;70.70;102003.19;5079411;28;20490;-46
2023/06/27 00:26:59;;;;;;;;;;;;;;;15.71;75.22;102014.50;5096035;28;19927;-45
2023/06/27 00:29:26;;;;;;;;;;;;;;;15.72;75.34;102015.38;5090613;28;19924;-47
2023/06/27 00:31:51;;;;;;;;;;;;;;;15.73;74.24;102014.53;5092558;28;19938;-46
2023/06/27 00:34:16;;;;;;;;;;;;;;;15.71;75.48;102011.00;5087176;28;20429;-47
2023/06/27 00:36:41;;;;;;;;;;;;;;;15.70;75.54;102010.13;5090838;28;20305;-59
2023/06/27 00:39:06;;;;;;;;;;;;;;;15.70;75.78;102006.66;5090755;28;19923;-58
2023/06/27 00:41:32;;;;;;;;;;;;;;;15.71;76.13;102008.41;5090822;28;19965;-59
2023/06/27 00:43:57;;;;;;;;;;;;;;;15.71;75.72;102011.00;5097439;28;19919;-59
2023/06/27 00:46:33;;;;;;;;;;;;;;;15.70;75.86;102010.13;5090217;28;20010;-57
2023/06/27 00:48:59;;;;;;;;;;;;;;;15.70;75.82;102010.13;5098151;28;19912;-59
2023/06/27 00:51:24;;;;;;;;;;;;;;;15.66;75.88;102007.44;5090069;28;19912;-59
2023/06/27 00:53:49;;;;;;;;;;;;;;;15.61;77.28;102011.59;5094939;28;19943;-59
2023/06/27 00:56:15;;;;;;;;;;;;;;;15.59;76.76;102018.44;5090460;28;19981;-60
2023/06/27 00:58:40;;;;;;;;;;;;;;;15.56;77.31;102012.34;5090559;28;19915;-59
2023/06/27 01:01:05;;;;;;;;;;;;;;;15.55;75.87;102010.59;5090587;28;19920;-60
2023/06/27 01:03:32;;;;;;;;;;;;;;;15.56;77.64;102016.66;5077635;28;20019;-58
2023/06/27 01:05:57;;;;;;;;;;;;;;;15.55;77.36;102010.59;5090622;28;19924;-58
2023/06/27 01:08:31;;;;;;;;;;;;;;;15.54;77.35;102019.22;5090662;28;19923;-58
2023/06/27 01:11:03;;;;;;;;;;;;;;;15.52;77.12;102015.69;5089966;28;19919;-61
2023/06/27 01:13:41;;;;;;;;;;;;;;;15.54;77.00;102018.34;5090640;28;19999;-60
2023/06/27 01:16:08;;;;;;;;;;;;;;;15.50;76.01;102011.31;5090104;28;20002;-59
2023/06/27 01:18:34;;;;;;;;;;;;;;;15.49;77.25;102013.03;5094280;28;20405;-58
2023/06/27 01:20:59;;;;;;;;;;;;;;;15.51;77.26;102013.94;5090703;28;19919;-60
2023/06/27 01:23:29;;;;;;;;;;;;;;;15.49;75.28;102006.97;5089864;28;19943;-59
2023/06/27 01:26:01;;;;;;;;;;;;;;;15.49;78.48;102007.84;5091318;28;19942;-59
2023/06/27 01:28:26;;;;;;;;;;;;;;;15.46;78.65;102015.50;5089817;28;19943;-59
2023/06/27 01:30:52;;;;;;;;;;;;;;;15.44;77.21;102017.19;5090625;28;19927;-59
2023/06/27 01:33:24;;;;;;;;;;;;;;;15.45;78.61;102016.34;5089275;28;19912;-58
2023/06/27 01:35:57;;;;;;;;;;;;;;;15.43;79.10;102015.44;5091650;28;19965;-59
2023/06/27 01:38:42;;;;;;;;;;;;;;;15.42;77.76;102013.69;5090170;28;19939;-59
2023/06/27 01:41:09;;;;;;;;;;;;;;;15.39;79.43;102015.31;5092225;28;19912;-59
2023/06/27 01:43:35;;;;;;;;;;;;;;;15.38;79.52;102017.03;5089079;28;20263;-60
2023/06/27 01:46:01;;;;;;;;;;;;;;;15.36;76.81;102016.13;5090900;28;19946;-57
2023/06/27 01:48:27;;;;;;;;;;;;;;;15.34;78.52;102014.31;5090066;28;20006;-58
2023/06/27 01:50:54;;;;;;;;;;;;;;;15.33;77.61;102008.25;5090017;28;19927;-59
2023/06/27 01:53:19;;;;;;;;;;;;;;;15.33;80.65;102010.84;5090063;28;19912;-59
2023/06/27 01:55:45;;;;;;;;;;;;;;;15.29;79.39;102004.72;5095699;28;20019;-59
2023/06/27 01:58:10;;;;;;;;;;;;;;;15.29;78.96;102007.31;5090705;28;19927;-59
2023/06/27 02:00:36;;;;;;;;;;;;;;;15.27;80.56;102008.09;5089191;28;20472;-58
2023/06/27 02:03:01;;;;;;;;;;;;;;;15.26;80.79;102004.63;5089443;28;20019;-58
2023/06/27 02:05:26;;;;;;;;;;;;;;;15.26;79.95;102006.34;5089984;28;20371;-59
2023/06/27 02:07:51;;;;;;;;;;;;;;;15.26;80.66;102006.34;5089744;28;20279;-58
2023/06/27 02:10:17;;;;;;;;;;;;;;;15.23;81.29;101999.38;5093435;28;20029;-58
2023/06/27 02:12:42;;;;;;;;;;;;;;;15.23;78.17;102001.09;5089487;28;20404;-58
2023/06/27 02:15:07;;;;;;;;;;;;;;;15.22;80.93;101997.59;5090014;28;20011;-58
2023/06/27 02:17:33;;;;;;;;;;;;;;;15.23;79.79;101994.19;5090338;28;19943;-59
2023/06/27 02:19:58;;;;;;;;;;;;;;;15.23;80.46;102004.56;5089978;28;19916;-58
2023/06/27 02:22:23;;;;;;;;;;;;;;;15.24;81.51;101997.66;5089457;28;19947;-60
2023/06/27 02:24:48;;;;;;;;;;;;;;;15.25;82.03;101999.41;5089108;28;20306;-58
2023/06/27 02:27:14;;;;;;;;;;;;;;;15.24;80.98;101993.34;5099515;28;19915;-59
2023/06/27 02:29:39;;;;;;;;;;;;;;;15.24;82.15;101989.88;5095614;28;20003;-59
2023/06/27 02:32:05;;;;;;;;;;;;;;;15.23;81.83;101991.59;5098799;28;20297;-59
2023/06/27 02:34:30;;;;;;;;;;;;;;;15.22;81.90;101988.94;5095015;28;19924;-58
2023/06/27 02:36:55;;;;;;;;;;;;;;;15.19;80.53;101991.47;5100433;28;20532;-58
2023/06/27 02:39:20;;;;;;;;;;;;;;;15.19;81.22;101983.69;5094746;28;19959;-58
2023/06/27 02:41:45;;;;;;;;;;;;;;;15.17;82.15;101980.19;5100726;28;19916;-58
2023/06/27 02:44:11;;;;;;;;;;;;;;;15.16;83.82;101988.78;5093605;28;20125;-59
2023/06/27 02:46:36;;;;;;;;;;;;;;;15.14;84.49;101986.16;5101968;28;20007;-59
2023/06/27 02:49:01;;;;;;;;;;;;;;;15.15;82.26;101992.22;5097402;28;20447;-59
2023/06/27 02:51:26;;;;;;;;;;;;;;;15.11;83.63;101990.41;5096702;28;19912;-59
2023/06/27 02:53:52;;;;;;;;;;;;;;;15.10;84.93;101988.63;5094258;28;19963;-60
2023/06/27 02:56:18;;;;;;;;;;;;;;;15.08;84.08;101980.81;5099850;28;19916;-59
2023/06/27 02:58:43;;;;;;;;;;;;;;;15.07;83.46;101984.25;5102354;28;19916;-59
2023/06/27 03:01:08;;;;;;;;;;;;;;;15.08;83.12;101990.28;5105348;28;20058;-59
2023/06/27 03:03:34;;;;;;;;;;;;;;;15.05;83.26;101998.00;5110483;28;19963;-59
2023/06/27 03:06:03;;;;;;;;;;;;;;;15.05;84.49;101998.00;5104309;28;19930;-58
2023/06/27 03:08:28;;;;;;;;;;;;;;;15.03;84.34;102001.41;5085631;28;20012;-45
2023/06/27 03:10:54;;;;;;;;;;;;;;;15.00;82.97;101993.56;5109644;28;19973;-45
2023/06/27 03:13:19;;;;;;;;;;;;;;;14.97;83.47;101990.88;5100269;28;20470;-47
2023/06/27 03:15:44;;;;;;;;;;;;;;;14.94;83.38;101993.38;5097216;28;19916;-45
2023/06/27 03:18:09;;;;;;;;;;;;;;;14.92;83.68;102002.81;5079760;28;19924;-45
2023/06/27 03:20:34;;;;;;;;;;;;;;;14.91;87.63;102006.22;5097232;28;19920;-47
2023/06/27 03:23:00;;;;;;;;;;;;;;;14.89;82.44;102002.72;5104231;28;19971;-45
2023/06/27 03:25:25;;;;;;;;;;;;;;;14.88;85.79;102002.69;5098765;28;20315;-46
2023/06/27 03:27:50;;;;;;;;;;;;;;;14.86;84.78;102000.03;5076228;28;19916;-47
2023/06/27 03:30:16;;;;;;;;;;;;;;;14.84;85.13;102000.84;5094388;28;19923;-45
2023/06/27 03:32:41;;;;;;;;;;;;;;;14.83;85.78;101999.09;5094688;28;20359;-47
2023/06/27 03:35:06;;;;;;;;;;;;;;;14.83;85.68;101997.38;5104643;28;19916;-45
2023/06/27 03:37:33;;;;;;;;;;;;;;;14.82;86.01;101993.03;5096127;28;20034;-45
2023/06/27 03:39:58;;;;;;;;;;;;;;;14.83;84.51;101997.38;5101940;28;19951;-48
2023/06/27 03:42:24;;;;;;;;;;;;;;;14.85;85.49;102007.78;5099205;28;20379;-45
2023/06/27 03:44:49;;;;;;;;;;;;;;;14.85;85.50;102003.47;5098467;28;19946;-47
2023/06/27 03:47:14;;;;;;;;;;;;;;;14.84;87.14;101993.94;5099583;28;19971;-45
2023/06/27 03:49:39;;;;;;;;;;;;;;;14.84;85.35;101995.66;5096109;28;20003;-48
2023/06/27 03:52:05;;;;;;;;;;;;;;;14.83;86.36;102010.31;5098092;28;19919;-45
2023/06/27 03:54:30;;;;;;;;;;;;;;;14.82;86.11;101999.94;5095964;28;20381;-47
2023/06/27 03:56:55;;;;;;;;;;;;;;;14.81;87.17;102001.66;5094442;28;19927;-48
2023/06/27 03:59:21;;;;;;;;;;;;;;;14.80;88.00;102010.22;5092745;28;19918;-48
2023/06/27 04:01:46;;;;;;;;;;;;;;;14.78;85.12;102001.53;5092130;28;19916;-45
2023/06/27 04:04:12;;;;;;;;;;;;;;;14.78;87.62;101996.38;5093321;28;20383;-47
2023/06/27 04:06:37;;;;;;;;;;;;;;;14.77;85.63;101997.19;5098106;28;19961;-46
2023/06/27 04:09:03;;;;;;;;;;;;;;;14.77;88.26;101994.63;5103712;28;19920;-46
2023/06/27 04:11:28;;;;;;;;;;;;;;;14.75;87.60;101998.88;5100075;28;19934;-46
2023/06/27 04:13:54;;;;;;;;;;;;;;;14.74;87.71;101995.41;5102562;28;19930;-48
2023/06/27 04:16:20;;;;;;;;;;;;;;;14.74;86.78;102005.78;5101269;28;19915;-48
2023/06/27 04:18:45;;;;;;;;;;;;;;;14.74;88.86;102003.19;5100036;28;19942;-45
2023/06/27 04:21:10;;;;;;;;;;;;;;;14.72;86.84;102002.25;5098364;28;20014;-48
2023/06/27 04:23:36;;;;;;;;;;;;;;;14.70;88.08;102003.03;5102358;28;20599;-47
2023/06/27 04:26:07;;;;;;;;;;;;;;;14.71;88.98;101999.63;5101963;28;19977;-46
2023/06/27 04:28:32;;;;;;;;;;;;;;;14.69;87.75;101998.69;5101963;28;19970;-48
2023/06/27 04:30:58;;;;;;;;;;;;;;;14.66;86.77;102006.38;5100970;28;19952;-47
2023/06/27 04:33:23;;;;;;;;;;;;;;;14.68;86.83;102004.69;5099731;28;19927;-49
2023/06/27 04:35:49;;;;;;;;;;;;;;;14.67;88.69;102009.00;5097311;28;19962;-44
2023/06/27 04:38:14;;;;;;;;;;;;;;;14.68;87.60;102004.69;5098333;28;19915;-45
2023/06/27 04:40:41;;;;;;;;;;;;;;;14.68;89.29;102005.59;5101181;28;19916;-47
2023/06/27 04:43:06;;;;;;;;;;;;;;;14.68;86.47;102010.78;5097128;28;19920;-45
2023/06/27 04:45:32;;;;;;;;;;;;;;;14.68;88.74;102015.03;5102158;28;19927;-44
2023/06/27 04:47:57;;;;;;;;;;;;;;;14.67;90.63;102018.47;5100536;28;20286;-46
2023/06/27 04:50:22;;;;;;;;;;;;;;;14.65;88.74;102015.84;5100317;28;19976;-44
2023/06/27 04:52:47;;;;;;;;;;;;;;;14.66;87.75;102019.31;5098999;28;20010;-44
2023/06/27 04:55:13;;;;;;;;;;;;;;;14.68;89.35;102012.44;5100352;28;19927;-45
2023/06/27 04:57:38;;;;;;;;;;;;;;;14.69;90.70;102020.28;5100521;28;19916;-45
2023/06/27 05:00:05;;;;;;;;;;;;;;;14.72;88.54;102022.94;5096787;28;19922;-45
2023/06/27 05:02:31;;;;;;;;;;;;;;;14.86;88.71;102019.88;5080007;28;19923;-44
2023/06/27 05:04:56;;;;;;;;;;;;;;;15.09;89.87;102025.72;5096175;28;19916;-46
2023/06/27 05:07:21;;;;;;;;;;;;;;;15.28;87.04;102020.22;5097762;28;19916;-46
2023/06/27 05:09:46;;;;;;;;;;;;;;;15.53;85.20;102025.22;5099272;28;19916;-49
2023/06/27 05:12:12;;;;;;;;;;;;;;;15.91;83.21;102019.28;5099061;28;20439;-46
2023/06/27 05:14:37;;;;;;;;;;;;;;;16.38;84.74;102025.63;5099443;28;19916;-47
2023/06/27 05:17:02;;;;;;;;;;;;;;;16.96;82.26;102026.00;5102897;28;19934;-44
2023/06/27 05:19:27;;;;;;;;;;;;;;;17.58;80.20;102026.31;5096040;28;19916;-46
2023/06/27 05:21:53;;;;;;;;;;;;;;;18.16;77.65;102028.19;5100351;28;20285;-45
2023/06/27 05:24:18;;;;;;;;;;;;;;;18.63;75.53;102021.94;5095240;28;19924;-49
2023/06/27 05:26:43;;;;;;;;;;;;;;;19.19;74.30;102024.38;5099417;28;19928;-46
2023/06/27 05:29:08;;;;;;;;;;;;;;;19.63;72.10;102016.16;5093569;28;20432;-49
2023/06/27 05:31:33;;;;;;;;;;;;;;;19.63;72.51;102021.38;5097437;28;19949;-48
2023/06/27 05:33:59;;;;;;;;;;;;;;;19.73;72.99;102020.59;5098715;28;19916;-48
2023/06/27 05:36:24;;;;;;;;;;;;;;;20.14;71.12;102015.69;5093829;28;19921;-46
2023/06/27 05:38:49;;;;;;;;;;;;;;;20.49;69.94;102020.28;5092086;28;19916;-45
2023/06/27 05:41:18;;;;;;;;;;;;;;;20.70;69.42;102020.41;5092934;28;19912;-46
2023/06/27 05:43:43;;;;;;;;;;;;;;;20.97;68.97;102014.41;5092717;28;19924;-45
2023/06/27 05:46:08;;;;;;;;;;;;;;;21.14;68.17;102017.06;5093708;28;20015;-45
2023/06/27 05:48:34;;;;;;;;;;;;;;;21.08;68.23;102020.53;5093798;28;19924;-45
2023/06/27 05:50:59;;;;;;;;;;;;;;;21.32;68.54;102009.31;5100485;28;19918;-45
2023/06/27 05:53:24;;;;;;;;;;;;;;;21.53;66.56;102012.81;5087053;28;19916;-48
2023/06/27 05:55:49;;;;;;;;;;;;;;;21.78;67.29;102017.22;5101843;28;19916;-46
2023/06/27 05:58:15;;;;;;;;;;;;;;;21.77;67.18;102010.19;5101607;28;20441;-46
2023/06/27 06:00:40;;;;;;;;;;;;;;;22.09;65.72;102017.19;5099693;28;19916;-46
2023/06/27 06:03:05;;;;;;;;;;;;;;;22.20;63.86;102015.44;5095347;28;19920;-48
2023/06/27 06:05:30;;;;;;;;;;;;;;;22.06;65.81;102012.81;5098104;28;20349;-45
2023/06/27 06:07:55;;;;;;;;;;;;;;;22.09;66.04;102017.19;5100993;28;19990;-45
2023/06/27 06:10:21;;;;;;;;;;;;;;;22.21;65.63;102017.22;5094797;28;20011;-49
2023/06/27 06:12:47;;;;;;;;;;;;;;;22.36;65.63;102014.53;5096096;28;19915;-47
2023/06/27 06:15:12;;;;;;;;;;;;;;;22.52;64.19;102012.75;5094636;28;19965;-48
2023/06/27 06:17:38;;;;;;;;;;;;;;;22.71;65.06;102018.81;5105168;28;20005;-47
2023/06/27 06:20:09;;;;;;;;;;;;;;;22.99;63.45;102024.81;5094642;28;19927;-44
2023/06/27 06:22:35;;;;;;;;;;;;;;;23.19;64.01;102017.72;5091473;28;19969;-48
2023/06/27 06:25:00;;;;;;;;;;;;;;;23.17;60.25;102018.59;5101796;28;19924;-46
2023/06/27 06:27:26;;;;;;;;;;;;;;;23.13;63.07;102019.53;5094829;28;20002;-47
2023/06/27 06:29:51;;;;;;;;;;;;;;;23.34;61.55;102021.13;5099215;28;19922;-44
2023/06/27 06:32:16;;;;;;;;;;;;;;;23.44;61.24;102028.94;5094003;28;19916;-46
2023/06/27 06:34:41;;;;;;;;;;;;;;;23.51;61.61;102030.63;5095345;28;20366;-48
2023/06/27 06:37:07;;;;;;;;;;;;;;;23.61;60.39;102035.84;5075835;28;19923;-46
2023/06/27 06:39:32;;;;;;;;;;;;;;;23.73;60.28;102033.16;5094125;28;19923;-47
2023/06/27 06:41:58;;;;;;;;;;;;;;;23.74;60.62;102038.38;5092071;28;19920;-49
2023/06/27 06:44:23;;;;;;;;;;;;;;;23.94;61.46;102039.97;5089915;28;20453;-46
2023/06/27 06:46:48;;;;;;;;;;;;;;;24.05;59.82;102040.75;5092976;28;19970;-48
2023/06/27 06:49:13;;;;;;;;;;;;;;;24.09;58.82;102039.84;5089541;28;19920;-49
2023/06/27 06:51:39;;;;;;;;;;;;;;;23.98;59.58;102037.31;5095092;28;19919;-45
2023/06/27 06:54:04;;;;;;;;;;;;;;;23.79;57.05;102041.84;5101756;28;20370;-48
2023/06/27 06:56:29;;;;;;;;;;;;;;;23.53;57.95;102049.88;5099169;28;19923;-46
2023/06/27 06:58:55;;;;;;;;;;;;;;;23.45;59.77;102046.44;5101849;28;19940;-48
2023/06/27 07:01:20;;;;;;;;;;;;;;;23.50;60.02;102049.03;5095202;28;19916;-45
2023/06/27 07:03:45;;;;;;;;;;;;;;;23.48;58.22;102049.03;5096963;28;20018;-46
2023/06/27 07:06:11;;;;;;;;;;;;;;;23.41;59.36;102034.19;5092002;28;19920;-45
2023/06/27 07:08:36;;;;;;;;;;;;;;;23.46;59.71;102042.91;5093819;28;19973;-46
2023/06/27 07:11:01;;;;;;;;;;;;;;;23.57;59.17;102050.72;5092077;28;19917;-48
2023/06/27 07:13:27;;;;;;;;;;;;;;;23.77;57.37;102042.72;5090402;28;19965;-46
2023/06/27 07:15:52;;;;;;;;;;;;;;;24.14;53.94;102050.28;5089605;28;19920;-46
2023/06/27 07:18:17;;;;;;;;;;;;;;;24.41;56.17;102055.31;5084364;28;20437;-46
2023/06/27 07:20:43;;;;;;;;;;;;;;;24.28;54.24;102043.16;5093049;28;19924;-45
2023/06/27 07:23:08;;;;;;;;;;;;;;;23.89;54.61;102049.63;5094030;28;19916;-49
2023/06/27 07:25:35;;;;;;;;;;;;;;;23.46;53.71;102045.53;5100682;28;19923;-46
2023/06/27 07:28:01;;;;;;;;;;;;;;;23.12;56.27;102052.75;5097697;28;19919;-45
2023/06/27 07:30:26;;;;;;;;;;;;;;;22.73;55.19;102056.38;5068401;28;20011;-46
2023/06/27 07:32:51;;;;;;;;;;;;;;;22.50;55.83;102045.94;5072952;28;20458;-48
2023/06/27 07:35:16;;;;;;;;;;;;;;;22.29;54.99;102039.00;5084954;28;19916;-46
2023/06/27 07:37:42;;;;;;;;;;;;;;;22.44;54.15;102044.22;5093632;28;19969;-46
2023/06/27 07:40:07;;;;;;;;;;;;;;;22.56;54.54;102042.44;5095447;28;20501;-48
2023/06/27 07:42:33;;;;;;;;;;;;;;;22.39;55.05;102051.25;5090646;28;20357;-48
2023/06/27 07:44:58;;;;;;;;;;;;;;;22.24;55.01;102043.38;5093331;28;19920;-45
2023/06/27 07:47:23;;;;;;;;;;;;;;;22.36;56.12;102045.97;5087778;28;19945;-48
2023/06/27 07:49:49;;;;;;;;;;;;;;;22.48;54.79;102048.56;5090451;28;19924;-47
2023/06/27 07:52:14;;;;;;;;;;;;;;;22.48;54.77;102043.34;5101186;28;19920;-49
2023/06/27 07:54:39;;;;;;;;;;;;;;;22.50;54.87;102038.09;5090104;28;19940;-46
2023/06/27 07:57:06;;;;;;;;;;;;;;;22.62;54.86;102034.56;5064568;28;19917;-46
2023/06/27 07:59:31;;;;;;;;;;;;;;;22.67;53.78;102038.91;5084149;28;19942;-47
2023/06/27 08:01:57;;;;;;;;;;;;;;;22.60;53.45;102044.19;5071428;28;19920;-47
2023/06/27 08:04:22;;;;;;;;;;;;;;;22.47;53.57;102038.97;5095480;28;19920;-48
2023/06/27 08:06:47;;;;;;;;;;;;;;;22.45;54.28;102043.34;5099688;28;19916;-47
2023/06/27 08:09:12;;;;;;;;;;;;;;;22.59;53.83;102040.69;5095304;28;19920;-48
2023/06/27 08:11:38;;;;;;;;;;;;;;;22.79;52.40;102043.25;5101406;28;20336;-49
2023/06/27 08:14:03;;;;;;;;;;;;;;;22.92;51.27;102039.72;5107260;28;19923;-48
2023/06/27 08:16:28;;;;;;;;;;;;;;;22.97;52.31;102042.31;5100583;28;20007;-48
2023/06/27 08:18:54;;;;;;;;;;;;;;;23.09;52.37;102029.16;5098881;28;19927;-48
2023/06/27 08:21:19;;;;;;;;;;;;;;;23.22;52.52;102029.94;5073211;28;20403;-47
2023/06/27 08:23:44;;;;;;;;;;;;;;;23.20;50.95;102034.34;5101910;28;20324;-45
2023/06/27 08:26:16;;;;;;;;;;;;;;;23.11;52.31;102037.88;5097164;28;19924;-48
2023/06/27 08:28:44;;;;;;;;;;;;;;;22.96;52.67;102044.06;5090891;28;20374;-46
2023/06/27 08:31:10;;;;;;;;;;;;;;;22.84;51.95;102041.47;5090524;28;19930;-49
2023/06/27 08:33:35;;;;;;;;;;;;;;;22.77;52.72;102037.13;5090673;28;19975;-48
2023/06/27 08:36:01;;;;;;;;;;;;;;;22.67;52.34;102030.16;5072064;28;20394;-45
2023/06/27 08:38:26;;;;;;;;;;;;;;;22.53;53.18;102034.59;5090012;28;20283;-44
2023/06/27 08:40:53;;;;;;;;;;;;;;;22.34;53.67;102033.78;5090609;28;20300;-50
2023/06/27 08:43:18;;;;;;;;;;;;;;;22.13;54.06;102035.53;5089340;28;19967;-46
2023/06/27 08:45:43;;;;;;;;;;;;;;;22.05;54.59;102026.78;5095214;28;20021;-46
2023/06/27 08:48:09;;;;;;;;;;;;;;;22.06;54.26;102031.16;5090180;28;19923;-50
2023/06/27 08:50:38;;;;;;;;;;;;;;;22.07;54.08;102037.25;5089759;28;19920;-45
2023/06/27 08:53:04;;;;;;;;;;;;;;;22.09;54.09;102030.28;5090122;28;19916;-49
2023/06/27 08:55:30;;;;;;;;;;;;;;;22.15;51.72;102039.03;5090797;28;19939;-46
2023/06/27 08:57:57;;;;;;;;;;;;;;;22.21;52.96;102031.19;5092311;28;20825;-47
2023/06/27 09:00:25;;;;;;;;;;;;;;;22.40;53.32;102032.00;5089565;28;19989;-47
2023/06/27 09:02:51;;;;;;;;;;;;;;;22.48;49.39;102025.00;5090453;28;19970;-58
2023/06/27 09:05:16;;;;;;;;;;;;;;;22.40;51.31;102031.13;5090279;28;19916;-58
2023/06/27 09:07:42;;;;;;;;;;;;;;;22.38;50.64;102025.88;5090182;28;19985;-59
2023/06/27 09:10:08;;;;;;;;;;;;;;;22.45;50.55;102029.38;5089481;28;20382;-59
2023/06/27 09:12:34;;;;;;;;;;;;;;;22.47;51.29;102038.09;5090072;28;20302;-59
2023/06/27 09:14:59;;;;;;;;;;;;;;;22.57;50.89;102031.97;5090597;28;20015;-59
2023/06/27 09:17:24;;;;;;;;;;;;;;;22.61;50.77;102032.81;5089201;28;19916;-59
2023/06/27 09:19:49;;;;;;;;;;;;;;;22.70;51.61;102035.41;5097320;28;19916;-59
2023/06/27 09:22:17;;;;;;;;;;;;;;;22.84;48.26;102030.13;5090064;28;20023;-58
2023/06/27 09:24:42;;;;;;;;;;;;;;;22.85;45.64;102026.59;5089918;28;19980;-47
2023/06/27 09:27:27;;;;;;;;;;;;;;;22.96;46.02;102027.47;5091892;28;20018;-47
2023/06/27 09:29:52;;;;;;;;;;;;;;;23.14;44.19;102030.00;5095086;28;20423;-47
2023/06/27 09:32:17;;;;;;;;;;;;;;;23.18;45.54;102038.75;5099284;28;19920;-46
2023/06/27 09:34:43;;;;;;;;;;;;;;;23.09;45.29;102044.03;5095595;28;20429;-48
2023/06/27 09:37:08;;;;;;;;;;;;;;;23.08;44.00;102042.28;5099564;28;19916;-48
2023/06/27 09:39:33;;;;;;;;;;;;;;;23.09;45.64;102041.41;5102659;28;19936;-45
2023/06/27 09:41:58;;;;;;;;;;;;;;;23.05;45.44;102042.28;5102090;28;20006;-45
2023/06/27 09:44:27;;;;;;;;;;;;;;;22.95;45.16;102055.44;5102589;28;19943;-46
2023/06/27 09:46:53;;;;;;;;;;;;;;;22.88;45.84;102058.13;5102514;28;19927;-45
2023/06/27 09:49:21;;;;;;;;;;;;;;;22.93;45.75;102056.31;5102787;28;20332;-48
2023/06/27 09:51:49;;;;;;;;;;;;;;;22.96;46.32;102057.19;5099604;28;19949;-45
2023/06/27 09:54:21;;;;;;;;;;;;;;;23.00;46.36;102048.44;5102280;28;20266;-59
2023/06/27 09:56:50;;;;;;;;;;;;;;;23.11;46.74;102045.75;5097946;28;19916;-58
2023/06/27 09:59:16;;;;;;;;;;;;;;;23.22;46.06;102043.94;5082751;28;19920;-59
2023/06/27 10:01:41;;;;;;;;;;;;;;;23.20;44.66;102040.47;5099138;28;20374;-58
2023/06/27 10:04:07;;;;;;;;;;;;;;;23.08;44.04;102048.41;5106805;28;19998;-59
2023/06/27 10:06:33;;;;;;;;;;;;;;;22.98;44.34;102052.81;5105134;28;20011;-59
2023/06/27 10:08:58;;;;;;;;;;;;;;;22.81;44.61;102051.97;5106141;28;19911;-59
2023/06/27 10:11:24;;;;;;;;;;;;;;;22.88;45.42;102040.63;5098815;28;20239;-59
2023/06/27 10:13:50;;;;;;;;;;;;;;;23.12;45.52;102044.03;5091401;28;19974;-59
2023/06/27 10:16:18;;;;;;;;;;;;;;;23.29;44.24;102043.00;5096651;28;19912;-57
2023/06/27 10:18:44;;;;;;;;;;;;;;;23.23;45.08;102050.06;5091442;28;20383;-57
2023/06/27 10:21:10;;;;;;;;;;;;;;;23.10;45.16;102045.75;5097811;28;19999;-59
2023/06/27 10:23:37;;;;;;;;;;;;;;;23.14;46.00;102047.50;5094269;28;19938;-59
2023/06/27 10:26:03;;;;;;;;;;;;;;;23.37;45.06;102045.63;5095430;28;19946;-58
2023/06/27 10:28:29;;;;;;;;;;;;;;;23.64;44.56;102047.19;5092241;28;19919;-57
2023/06/27 10:30:54;;;;;;;;;;;;;;;23.88;44.31;102051.41;5093838;28;19935;-59
2023/06/27 10:33:31;;;;;;;;;;;;;;;23.90;42.20;102054.88;5091939;28;20375;-59
2023/06/27 10:36:01;;;;;;;;;;;;;;;23.67;43.27;102049.81;5090753;28;19923;-59
2023/06/27 10:38:36;;;;;;;;;;;;;;;23.51;42.57;102043.75;5090584;28;19912;-59
2023/06/27 10:41:09;;;;;;;;;;;;;;;23.50;42.12;102049.91;5094762;28;19924;-59
2023/06/27 10:43:36;;;;;;;;;;;;;;;23.62;42.50;102027.97;5100129;28;19919;-59
2023/06/27 10:46:05;;;;;;;;;;;;;;;23.71;41.70;102037.53;5093552;28;19912;-59
2023/06/27 10:48:32;;;;;;;;;;;;;;;23.68;42.77;102035.81;5093971;28;19923;-57
2023/06/27 10:51:05;;;;;;;;;;;;;;;23.51;43.57;102033.25;5093129;28;19913;-58
2023/06/27 10:53:31;;;;;;;;;;;;;;;23.54;42.82;102043.75;5091935;28;19911;-58
2023/06/27 10:55:56;;;;;;;;;;;;;;;23.32;42.79;102031.66;5088739;28;19922;-58
2023/06/27 10:58:26;;;;;;;;;;;;;;;23.07;43.87;102028.28;5090726;28;19920;-58
2023/06/27 11:00:52;;;;;;;;;;;;;;;23.13;44.29;102032.63;5089690;28;20070;-59
2023/06/27 11:03:22;;;;;;;;;;;;;;;23.31;42.95;102027.28;5090120;28;20390;-57
2023/06/27 11:05:57;;;;;;;;;;;;;;;23.50;43.84;102022.78;5098703;28;19954;-58
2023/06/27 11:08:26;;;;;;;;;;;;;;;23.58;43.00;102023.59;5099408;28;20404;-58
2023/06/27 11:11:01;;;;;;;;;;;;;;;23.51;42.06;102033.25;5105635;28;19916;-57
2023/06/27 11:13:27;;;;;;;;;;;;;;;23.32;43.36;102030.78;5104330;28;20073;-57
2023/06/27 11:15:53;;;;;;;;;;;;;;;23.16;44.65;102027.34;5103414;28;19915;-57
2023/06/27 11:18:19;;;;;;;;;;;;;;;23.14;44.36;102029.13;5100583;28;19998;-58
2023/06/27 11:20:45;;;;;;;;;;;;;;;23.03;43.81;102029.19;5097756;28;20363;-57
2023/06/27 11:23:14;;;;;;;;;;;;;;;23.18;43.38;102034.34;5099280;28;19969;-59
2023/06/27 11:25:43;;;;;;;;;;;;;;;23.37;42.11;102024.63;5094437;28;19924;-58
2023/06/27 11:28:10;;;;;;;;;;;;;;;23.65;41.90;102027.94;5099229;28;20392;-58
2023/06/27 11:30:36;;;;;;;;;;;;;;;23.88;39.95;102032.13;5095517;28;19947;-58
2023/06/27 11:33:02;;;;;;;;;;;;;;;23.89;40.05;102031.25;5096886;28;19981;-58
2023/06/27 11:35:28;;;;;;;;;;;;;;;24.11;39.87;102031.94;5096193;28;19916;-58
2023/06/27 11:37:54;;;;;;;;;;;;;;;24.28;39.49;102025.63;5099417;28;19941;-58
2023/06/27 11:40:23;;;;;;;;;;;;;;;24.39;41.30;102033.44;5096228;28;19969;-59
2023/06/27 11:42:48;;;;;;;;;;;;;;;24.51;40.05;102032.41;5099716;28;19919;-58
2023/06/27 11:45:13;;;;;;;;;;;;;;;24.56;38.43;102030.59;5108849;28;19923;-59
2023/06/27 11:47:39;;;;;;;;;;;;;;;24.58;39.79;102037.59;5106694;28;19911;-59
2023/06/27 11:50:06;;;;;;;;;;;;;;;24.57;40.90;102027.97;5106638;28;20374;-57
2023/06/27 11:52:31;;;;;;;;;;;;;;;24.49;39.88;102026.31;5107116;28;19912;-58
2023/06/27 11:54:56;;;;;;;;;;;;;;;24.25;40.39;102030.91;5099854;28;20397;-59
2023/06/27 11:57:21;;;;;;;;;;;;;;;24.23;40.22;102037.94;5101257;28;19974;-59
2023/06/27 11:59:50;;;;;;;;;;;;;;;24.21;40.54;102031.84;5102373;28;20291;-59
2023/06/27 12:02:15;;;;;;;;;;;;;;;24.21;40.87;102033.59;5097231;28;19912;-59
2023/06/27 12:04:42;;;;;;;;;;;;;;;24.19;41.03;102036.22;5100892;28;19943;-58
2023/06/27 12:07:19;;;;;;;;;;;;;;;24.16;39.56;102019.63;5098498;28;20003;-59
2023/06/27 12:09:44;;;;;;;;;;;;;;;24.18;38.62;102030.97;5097734;28;20294;-59
2023/06/27 12:12:09;;;;;;;;;;;;;;;24.04;39.74;102039.88;5099447;28;19916;-58
2023/06/27 12:14:34;;;;;;;;;;;;;;;24.01;39.50;102039.88;5100921;28;19927;-59
2023/06/27 12:17:03;;;;;;;;;;;;;;;23.92;38.87;102025.97;5098609;28;19924;-58
2023/06/27 12:19:28;;;;;;;;;;;;;;;23.72;39.31;102019.16;5082753;28;20004;-59
2023/06/27 12:21:54;;;;;;;;;;;;;;;23.65;40.61;102017.44;5092722;28;19959;-58
2023/06/27 12:24:20;;;;;;;;;;;;;;;23.73;40.26;102020.00;5097294;28;20398;-58
2023/06/27 12:26:45;;;;;;;;;;;;;;;23.78;40.03;102012.94;5095056;28;19928;-59
2023/06/27 12:29:10;;;;;;;;;;;;;;;23.77;41.40;102011.22;5093543;28;19922;-59